Pagina principale
METAR-TAF:

METAR-TAF

Aeroporti :

Montichiari

Brescia, Italia

latitudine: 45-24-02N, longitudine: 010-18-59E, altezza: 104 m

Osservazione

Il bollettino è stato emesso 59 minuti fa, alle 13:50 UTC
Vento 3 kt da sud-est
Temperature 11°C
Umidità 87%
Pressione 1011 hPa
Visibilità: 6000 m

METAR: LIPO 211350Z 14003KT 6000 NSC 11/09 Q1011

Ora: 15:49 (14:49 UTC)

Previsione

Il bollettino è stato emesso 3 ore e 49 minuti fa, alle 11:00 UTC
Previsione valida dal 21 alle 12 UTC al 22 alle 12 UTC
Vento 5 kt da direzioni variabili
Visibilità: 2000 m
Nubi sparse ad un'altezza di 1000 ft
Nuvoloso ad un'altezza di 3000 ft
foschia
Temporaneamente
dal 21 alle 21 UTC al 22 alle 08 UTC
Visibilità: 0800 m
Nuvoloso ad un'altezza di 800 ft
Nuvoloso ad un'altezza di 2000 ft
banchi di nebbia

TAF: LIPO 211100Z 2112/2212 VRB05KT 2000 BR SCT010 BKN030 TEMPO 2121/2208 0800 BCFG BKN008 BKN020

Osservazioni e previsioni meteorologiche di più di 4000 aeroporti (messaggi METAR e TAF).

Le stazioni disponibili sono rappresentate dai dischi gialli e rossi sulla carta.

Puntare il mouse per vedere il nome della stazione.

Clicca sopra per visualizzare le osservazioni e previsioni meteorologiche.

Per cambiare la mappa : fare clic sui pulsanti verdi con una croce nera per ingrandire, il pulsante verde con un trattino per diminuire, o sulla freccia verde per le mappe adiacenti.


METAR-TAF: